Time;durP1;ratioP1;P1;durP2;ratioP2;P2;SDS_P1;SDS_P2;PMS_P1;PMS_P2;Temp;Humidity;BMP_temperature;BMP_pressure;BME280_temperature;BME280_humidity;BME280_pressure;Samples;Min_cycle;Max_cycle;Signal;HPM_P1;HPM_P2
2023/12/31 00:01:59;;;;;;;5.88;3.65;;;9.20;99.90;;;;;;5070599;28;20119;-72
2023/12/31 00:04:25;;;;;;;7.80;3.80;;;9.40;99.90;;;;;;5071043;28;20439;-70
2023/12/31 00:06:50;;;;;;;;;;;9.40;99.90;;;;;;5070728;28;20048;-70
2023/12/31 00:09:16;;;;;;;5.20;3.30;;;9.20;99.90;;;;;;5070586;28;19920;-70
2023/12/31 00:11:41;;;;;;;6.95;3.67;;;9.20;99.90;;;;;;5070371;28;20037;-70
2023/12/31 00:14:10;;;;;;;6.85;4.22;;;9.30;99.90;;;;;;5070179;28;20080;-70
2023/12/31 00:16:35;;;;;;;6.63;3.53;;;9.40;99.90;;;;;;5071130;28;20485;-70
2023/12/31 00:19:03;;;;;;;5.60;3.67;;;9.40;99.90;;;;;;5070351;28;20487;-70
2023/12/31 00:21:32;;;;;;;5.90;3.60;;;9.30;99.90;;;;;;5069565;28;20086;-70
2023/12/31 00:23:58;;;;;;;6.78;3.40;;;9.20;99.90;;;;;;5070576;28;20127;-70
2023/12/31 00:26:23;;;;;;;4.57;3.00;;;9.40;99.90;;;;;;5070631;28;20456;-70
2023/12/31 00:28:49;;;;;;;;;;;9.30;99.90;;;;;;5074192;28;20040;-70
2023/12/31 00:31:14;;;;;;;5.35;3.22;;;9.30;99.90;;;;;;5074337;28;19943;-70
2023/12/31 00:33:40;;;;;;;10.38;3.58;;;9.40;99.90;;;;;;5075560;28;20037;-70
2023/12/31 00:36:06;;;;;;;;;;;9.30;99.90;;;;;;5073675;28;20068;-70
2023/12/31 00:38:31;;;;;;;3.97;2.67;;;9.20;99.90;;;;;;5075687;28;19920;-70
2023/12/31 00:40:57;;;;;;;5.53;3.42;;;9.20;99.90;;;;;;5074270;28;20044;-70
2023/12/31 00:43:22;;;;;;;5.13;3.50;;;9.20;99.90;;;;;;5073461;28;20325;-70
2023/12/31 00:45:48;;;;;;;6.10;3.30;;;9.10;99.90;;;;;;5073861;28;20534;-69
2023/12/31 00:48:14;;;;;;;6.60;3.30;;;9.10;99.90;;;;;;5073130;28;20127;-70
2023/12/31 00:50:39;;;;;;;5.82;3.33;;;9.50;99.90;;;;;;5073462;28;20498;-70
2023/12/31 00:53:05;;;;;;;5.05;3.33;;;9.20;99.90;;;;;;5107510;28;20040;-70
2023/12/31 00:55:30;;;;;;;7.40;3.92;;;8.90;99.90;;;;;;5074039;28;20040;-70
2023/12/31 00:57:56;;;;;;;4.97;3.30;;;9.10;99.90;;;;;;5073128;28;20067;-70
2023/12/31 01:00:22;;;;;;;5.43;3.30;;;8.90;99.90;;;;;;5073958;28;20048;-70
2023/12/31 01:02:47;;;;;;;5.95;3.50;;;8.90;99.90;;;;;;5073128;28;20113;-70
2023/12/31 01:05:13;;;;;;;5.70;2.58;;;8.90;99.90;;;;;;5073890;28;20052;-70
2023/12/31 01:07:38;;;;;;;4.75;2.90;;;8.90;99.90;;;;;;5073618;28;20048;-70
2023/12/31 01:10:05;;;;;;;5.03;3.60;;;9.20;99.90;;;;;;5072039;28;20503;-70
2023/12/31 01:12:31;;;;;;;5.00;3.05;;;8.80;99.90;;;;;;5075195;28;20045;-70
2023/12/31 01:14:56;;;;;;;7.75;3.40;;;9.00;99.90;;;;;;5075029;28;20176;-70
2023/12/31 01:17:22;;;;;;;5.78;3.38;;;8.80;99.90;;;;;;5072612;28;20565;-70
2023/12/31 01:19:47;;;;;;;;;;;8.70;99.90;;;;;;5074016;28;20049;-70
2023/12/31 01:22:13;;;;;;;4.22;2.53;;;8.70;99.90;;;;;;5072780;28;20339;-70
2023/12/31 01:24:38;;;;;;;4.80;2.55;;;8.80;99.90;;;;;;5072850;28;20086;-70
2023/12/31 01:27:04;;;;;;;5.65;2.58;;;8.80;99.90;;;;;;5073250;28;20480;-69
2023/12/31 01:29:30;;;;;;;5.50;2.25;;;8.80;99.90;;;;;;5073428;28;20049;-70
2023/12/31 01:31:56;;;;;;;5.85;2.75;;;8.70;99.90;;;;;;5072177;28;20477;-70
2023/12/31 01:34:21;;;;;;;5.78;2.70;;;8.90;99.90;;;;;;5073070;28;20044;-70
2023/12/31 01:36:47;;;;;;;5.45;2.50;;;8.70;99.90;;;;;;5073176;28;20118;-69
2023/12/31 01:39:12;;;;;;;4.95;2.45;;;8.70;99.90;;;;;;5073043;28;20044;-70
2023/12/31 01:41:38;;;;;;;3.97;2.17;;;9.10;99.90;;;;;;5073396;28;20075;-70
2023/12/31 01:44:07;;;;;;;3.53;2.00;;;9.10;99.90;;;;;;5073127;28;20052;-70
2023/12/31 01:46:33;;;;;;;4.45;1.90;;;8.70;99.90;;;;;;5071744;28;20049;-69
2023/12/31 01:49:00;;;;;;;3.97;1.85;;;8.70;99.90;;;;;;5074247;28;20091;-70
2023/12/31 01:51:27;;;;;;;3.92;1.90;;;8.80;99.90;;;;;;5073214;28;20076;-70
2023/12/31 01:53:55;;;;;;;4.18;2.00;;;8.70;99.90;;;;;;5072096;28;20071;-70
2023/12/31 01:56:21;;;;;;;4.03;1.80;;;8.80;99.90;;;;;;5072402;28;20055;-70
2023/12/31 01:58:48;;;;;;;3.42;1.63;;;8.80;99.90;;;;;;5074266;28;20036;-70
2023/12/31 02:01:17;;;;;;;3.88;2.15;;;9.10;99.90;;;;;;5071855;28;20044;-70
2023/12/31 02:03:43;;;;;;;3.45;1.75;;;8.90;99.90;;;;;;5072809;28;20185;-70
2023/12/31 02:06:09;;;;;;;4.82;2.10;;;8.90;99.90;;;;;;5071242;28;20119;-70
2023/12/31 02:08:36;;;;;;;3.38;1.98;;;9.20;99.90;;;;;;5072250;28;20063;-70
2023/12/31 02:11:02;;;;;;;8.20;2.45;;;8.80;99.90;;;;;;5072476;28;20044;-70
2023/12/31 02:13:28;;;;;;;4.85;2.13;;;8.80;99.90;;;;;;5071947;28;20082;-70
2023/12/31 02:15:53;;;;;;;3.55;2.10;;;8.90;99.90;;;;;;5072790;28;20137;-70
2023/12/31 02:18:19;;;;;;;;;;;8.80;99.90;;;;;;5073841;28;20131;-70
2023/12/31 02:20:44;;;;;;;4.55;2.50;;;8.90;99.90;;;;;;5071618;28;19920;-70
2023/12/31 02:23:10;;;;;;;5.75;1.95;;;8.80;99.90;;;;;;5071878;28;20075;-70
2023/12/31 02:25:41;;;;;;;3.53;1.42;;;9.30;99.90;;;;;;5072414;28;20074;-70
2023/12/31 02:28:12;;;;;;;3.15;2.03;;;8.70;99.90;;;;;;5071622;28;20377;-70
2023/12/31 02:30:38;;;;;;;4.18;1.85;;;8.60;99.90;;;;;;5071774;28;20047;-70
2023/12/31 02:33:03;;;;;;;4.30;2.05;;;8.60;99.90;;;;;;5073173;28;20041;-70
2023/12/31 02:35:29;;;;;;;;;;;8.50;99.90;;;;;;5072971;28;20044;-70
2023/12/31 02:37:54;;;;;;;3.50;1.90;;;8.50;99.90;;;;;;5073435;28;20364;-70
2023/12/31 02:40:20;;;;;;;;;;;8.90;99.90;;;;;;5073476;28;20041;-70
2023/12/31 02:42:46;;;;;;;4.93;1.90;;;8.60;99.90;;;;;;5072399;28;19921;-70
2023/12/31 02:45:12;;;;;;;5.03;2.10;;;8.50;99.90;;;;;;5071560;28;20110;-70
2023/12/31 02:47:37;;;;;;;4.30;2.25;;;8.50;99.90;;;;;;5071489;28;20056;-70
2023/12/31 02:50:04;;;;;;;4.60;2.08;;;8.90;99.90;;;;;;5069643;28;20078;-70
2023/12/31 02:52:30;;;;;;;5.85;2.10;;;8.40;99.90;;;;;;5071875;28;20044;-70
2023/12/31 02:54:55;;;;;;;4.55;1.83;;;8.30;99.90;;;;;;5071691;28;20476;-69
2023/12/31 02:57:22;;;;;;;3.13;1.60;;;8.30;99.90;;;;;;5070079;28;20040;-70
2023/12/31 02:59:48;;;;;;;4.07;1.95;;;8.30;99.90;;;;;;5071850;28;20434;-70
2023/12/31 03:02:13;;;;;;;5.65;2.22;;;8.20;99.90;;;;;;5070235;28;20127;-70
2023/12/31 03:04:40;;;;;;;5.95;2.22;;;8.20;99.90;;;;;;5070943;28;20476;-69
2023/12/31 03:07:06;;;;;;;3.92;2.03;;;8.50;99.90;;;;;;5070442;28;20037;-70
2023/12/31 03:09:32;;;;;;;4.18;2.55;;;8.20;99.90;;;;;;5070705;28;20134;-69
2023/12/31 03:11:57;;;;;;;3.53;1.90;;;8.20;99.90;;;;;;5072297;28;20504;-69
2023/12/31 03:14:23;;;;;;;4.70;2.30;;;8.10;99.90;;;;;;5071249;28;20044;-69
2023/12/31 03:16:49;;;;;;;4.43;1.67;;;8.10;99.90;;;;;;5072201;28;20358;-70
2023/12/31 03:19:15;;;;;;;;;;;8.30;99.90;;;;;;5071256;28;20098;-70
2023/12/31 03:21:41;;;;;;;3.03;1.58;;;8.40;99.90;;;;;;5071069;28;20031;-70
2023/12/31 03:24:11;;;;;;;4.20;1.95;;;8.20;99.90;;;;;;5070173;28;20500;-70
2023/12/31 03:26:39;;;;;;;4.32;2.20;;;8.70;99.90;;;;;;5071499;28;20054;-70
2023/12/31 03:29:05;;;;;;;3.78;1.92;;;8.20;99.90;;;;;;5071172;28;20094;-70
2023/12/31 03:31:30;;;;;;;3.33;1.73;;;8.00;99.90;;;;;;5070236;28;20435;-70
2023/12/31 03:33:56;;;;;;;4.63;1.90;;;8.30;99.90;;;;;;5071072;28;20500;-70
2023/12/31 03:36:22;;;;;;;;;;;8.30;99.90;;;;;;5071441;28;20056;-70
2023/12/31 03:38:51;;;;;;;4.25;2.00;;;8.70;99.90;;;;;;5070124;28;19920;-70
2023/12/31 03:41:17;;;;;;;4.05;2.20;;;8.30;99.90;;;;;;5071012;28;20040;-70
2023/12/31 03:43:43;;;;;;;3.83;1.92;;;8.30;99.90;;;;;;5071426;28;20411;-69
2023/12/31 03:46:08;;;;;;;3.47;1.75;;;8.20;99.90;;;;;;5069922;28;20047;-70
2023/12/31 03:48:34;;;;;;;3.72;1.98;;;8.50;99.90;;;;;;5071184;28;20123;-70
2023/12/31 03:50:59;;;;;;;;;;;8.40;99.90;;;;;;5071217;28;20450;-70
2023/12/31 03:53:25;;;;;;;4.05;1.75;;;8.40;99.90;;;;;;5070408;28;19921;-69
2023/12/31 03:55:50;;;;;;;6.57;2.05;;;9.00;99.90;;;;;;5071035;28;20039;-70
2023/12/31 03:58:19;;;;;;;4.30;2.00;;;8.30;99.90;;;;;;5070170;28;20135;-70
2023/12/31 04:00:44;;;;;;;4.65;2.05;;;8.30;99.90;;;;;;5071188;28;20242;-69
2023/12/31 04:03:10;;;;;;;3.45;1.85;;;8.30;99.90;;;;;;5075943;28;20551;-70
2023/12/31 04:05:35;;;;;;;;;;;8.30;99.90;;;;;;5075035;28;20037;-69
2023/12/31 04:08:01;;;;;;;4.03;1.40;;;8.20;99.90;;;;;;5074579;28;20386;-70
2023/12/31 04:10:26;;;;;;;;;;;8.40;99.90;;;;;;5075448;28;20049;-70
2023/12/31 04:12:52;;;;;;;2.75;1.45;;;8.40;99.90;;;;;;5074255;28;20635;-70
2023/12/31 04:15:18;;;;;;;2.78;1.48;;;8.40;99.90;;;;;;5074907;28;21029;-70
2023/12/31 04:17:44;;;;;;;4.93;1.40;;;8.40;99.90;;;;;;5074775;28;20036;-70
2023/12/31 04:20:10;;;;;;;5.00;1.60;;;8.50;99.90;;;;;;5073464;28;20400;-70
2023/12/31 04:22:35;;;;;;;4.07;1.60;;;8.50;99.90;;;;;;5074956;28;20499;-70
2023/12/31 04:25:01;;;;;;;3.28;1.58;;;8.60;99.90;;;;;;5074384;28;20049;-70
2023/12/31 04:27:27;;;;;;;;;;;8.50;99.90;;;;;;5075658;28;20040;-70
2023/12/31 04:29:52;;;;;;;3.63;1.60;;;8.50;99.90;;;;;;5074621;28;19950;-70
2023/12/31 04:32:18;;;;;;;3.25;1.40;;;8.50;99.90;;;;;;5073885;28;20127;-70
2023/12/31 04:34:44;;;;;;;3.05;1.60;;;8.80;99.90;;;;;;5073765;28;20044;-70
2023/12/31 04:37:12;;;;;;;3.42;1.63;;;8.40;99.90;;;;;;5074317;28;20396;-70
2023/12/31 04:39:39;;;;;;;2.88;1.50;;;8.70;99.90;;;;;;5074274;28;20047;-70
2023/12/31 04:42:05;;;;;;;4.03;1.65;;;8.50;99.90;;;;;;5073708;28;20044;-69
2023/12/31 04:44:30;;;;;;;4.00;1.50;;;8.50;99.90;;;;;;5073940;28;20078;-70
2023/12/31 04:46:56;;;;;;;3.30;1.50;;;8.40;99.90;;;;;;5074061;28;20048;-70
2023/12/31 04:49:22;;;;;;;3.13;1.58;;;8.70;99.90;;;;;;5072908;28;20408;-70
2023/12/31 04:51:47;;;;;;;3.45;1.42;;;8.40;99.90;;;;;;5075268;28;20399;-70
2023/12/31 04:54:13;;;;;;;;;;;8.50;99.90;;;;;;5074788;28;20056;-70
2023/12/31 04:56:38;;;;;;;2.85;1.50;;;8.50;99.90;;;;;;5074879;28;19927;-70
2023/12/31 04:59:04;;;;;;;;;;;8.50;99.90;;;;;;5074053;28;20458;-70
2023/12/31 05:01:32;;;;;;;3.55;1.70;;;8.40;99.90;;;;;;5074280;28;19963;-70
2023/12/31 05:03:59;;;;;;;3.20;1.48;;;8.40;99.90;;;;;;5073300;28;20109;-69
2023/12/31 05:06:25;;;;;;;4.45;1.60;;;8.50;99.90;;;;;;5108101;28;20087;-70
2023/12/31 05:08:51;;;;;;;3.55;1.70;;;8.50;99.90;;;;;;5073183;28;20080;-70
2023/12/31 05:11:17;;;;;;;5.10;1.90;;;8.70;99.90;;;;;;5073871;28;20458;-70
2023/12/31 05:13:43;;;;;;;3.83;1.90;;;8.50;99.90;;;;;;5072899;28;20132;-70
2023/12/31 05:16:13;;;;;;;3.95;2.00;;;9.10;99.90;;;;;;5072608;28;20049;-70
2023/12/31 05:18:40;;;;;;;3.17;1.77;;;8.90;99.90;;;;;;5073263;28;20072;-69
2023/12/31 05:21:05;;;;;;;4.30;1.88;;;8.50;99.90;;;;;;5073310;28;20050;-70
2023/12/31 05:23:31;;;;;;;2.80;1.42;;;8.40;99.90;;;;;;5074210;28;20044;-70
2023/12/31 05:25:57;;;;;;;3.92;1.58;;;8.40;99.90;;;;;;5074958;28;20048;-70
2023/12/31 05:28:23;;;;;;;3.60;1.80;;;8.40;99.90;;;;;;5073063;28;20055;-70
2023/12/31 05:30:48;;;;;;;3.65;1.70;;;8.40;99.90;;;;;;5073000;28;20044;-70
2023/12/31 05:33:14;;;;;;;3.05;1.50;;;8.40;99.90;;;;;;5072736;28;20132;-69
2023/12/31 05:35:40;;;;;;;3.58;1.80;;;8.40;99.90;;;;;;5074595;28;20040;-70
2023/12/31 05:38:06;;;;;;;2.90;1.60;;;8.50;99.90;;;;;;5072308;28;20056;-70
2023/12/31 05:40:32;;;;;;;3.47;1.73;;;8.60;99.90;;;;;;5073574;28;20044;-70
2023/12/31 05:42:58;;;;;;;4.03;1.80;;;8.50;99.90;;;;;;5072652;28;20051;-70
2023/12/31 05:45:23;;;;;;;5.70;1.42;;;8.80;99.90;;;;;;5072351;28;20037;-70
2023/12/31 05:47:49;;;;;;;4.15;1.63;;;8.80;99.90;;;;;;5073070;28;20173;-70
2023/12/31 05:50:15;;;;;;;3.30;1.38;;;9.00;99.90;;;;;;5074276;28;20049;-70
2023/12/31 05:52:41;;;;;;;3.20;1.42;;;8.60;99.90;;;;;;5072309;28;20344;-70
2023/12/31 05:55:07;;;;;;;5.30;1.88;;;8.60;99.90;;;;;;5072268;28;20468;-69
2023/12/31 05:57:32;;;;;;;3.20;1.65;;;8.70;99.90;;;;;;5072892;28;20458;-70
2023/12/31 06:00:05;;;;;;;2.70;1.40;;;8.70;99.90;;;;;;5072498;28;20039;-70
2023/12/31 06:02:31;;;;;;;2.75;1.50;;;8.70;99.90;;;;;;5107121;28;20044;-70
2023/12/31 06:04:57;;;;;;;5.65;1.58;;;8.80;99.90;;;;;;5072937;28;20076;-70
2023/12/31 06:07:22;;;;;;;2.90;1.40;;;8.90;99.90;;;;;;5071609;28;20126;-70
2023/12/31 06:09:48;;;;;;;2.92;1.52;;;8.70;99.90;;;;;;5073053;28;20044;-70
2023/12/31 06:12:14;;;;;;;2.33;1.30;;;8.80;99.90;;;;;;5071507;28;20036;-70
2023/12/31 06:14:39;;;;;;;3.28;1.52;;;8.90;99.90;;;;;;5072604;28;20049;-70
2023/12/31 06:17:05;;;;;;;2.92;1.60;;;9.10;99.90;;;;;;5072100;28;20037;-70
2023/12/31 06:19:31;;;;;;;;;;;8.80;99.90;;;;;;5072235;28;20477;-70
2023/12/31 06:21:56;;;;;;;6.03;1.80;;;8.70;99.90;;;;;;5072468;28;19927;-70
2023/12/31 06:24:22;;;;;;;4.47;1.60;;;8.80;99.90;;;;;;5070946;28;20408;-70
2023/12/31 06:26:47;;;;;;;6.32;1.75;;;8.80;99.90;;;;;;5071736;28;20102;-70
2023/12/31 06:29:13;;;;;;;2.65;1.33;;;8.70;99.90;;;;;;5071628;28;20033;-70
2023/12/31 06:31:39;;;;;;;3.72;1.65;;;8.80;99.90;;;;;;5072300;28;20059;-70
2023/12/31 06:34:04;;;;;;;2.83;1.55;;;9.10;99.90;;;;;;5071151;28;20127;-70
2023/12/31 06:36:30;;;;;;;;;;;9.00;99.90;;;;;;5072856;28;20450;-70
2023/12/31 06:38:55;;;;;;;4.05;1.50;;;8.80;99.90;;;;;;5072242;28;19921;-70
2023/12/31 06:41:21;;;;;;;4.78;2.03;;;8.60;99.90;;;;;;5070484;28;20052;-70
2023/12/31 06:43:47;;;;;;;4.95;1.80;;;9.10;99.90;;;;;;5072293;28;20037;-70
2023/12/31 06:46:14;;;;;;;3.15;1.70;;;8.90;99.90;;;;;;5073074;28;20056;-70
2023/12/31 06:48:43;;;;;;;3.47;1.80;;;8.90;99.90;;;;;;5071197;28;20095;-70
2023/12/31 06:51:08;;;;;;;3.22;1.75;;;8.90;99.90;;;;;;5072964;28;20492;-70
2023/12/31 06:53:34;;;;;;;3.53;1.92;;;9.00;99.90;;;;;;5071814;28;20056;-69
2023/12/31 06:56:06;;;;;;;;;;;8.80;99.90;;;;;;5072112;28;20045;-70
2023/12/31 06:58:33;;;;;;;3.50;1.60;;;9.00;99.90;;;;;;5071724;28;20058;-70
2023/12/31 07:00:58;;;;;;;4.43;2.20;;;8.90;99.90;;;;;;5071765;28;20110;-70
2023/12/31 07:03:24;;;;;;;3.53;2.00;;;9.00;99.90;;;;;;5070726;28;20517;-70
2023/12/31 07:05:50;;;;;;;;;;;9.20;99.90;;;;;;5071593;28;20114;-70
2023/12/31 07:08:15;;;;;;;3.70;2.00;;;9.00;99.90;;;;;;5070995;28;19928;-70
2023/12/31 07:10:42;;;;;;;3.80;2.05;;;9.50;99.90;;;;;;5072094;28;20055;-70
2023/12/31 07:13:07;;;;;;;4.55;2.35;;;9.10;99.90;;;;;;5072631;28;20131;-70
2023/12/31 07:15:34;;;;;;;3.95;2.42;;;8.90;99.90;;;;;;5070275;28;20127;-70
2023/12/31 07:18:00;;;;;;;3.60;2.08;;;9.20;99.90;;;;;;5071181;28;20055;-70
2023/12/31 07:20:25;;;;;;;6.63;2.70;;;8.90;99.90;;;;;;5071748;28;20052;-70
2023/12/31 07:22:53;;;;;;;5.13;2.88;;;8.90;99.90;;;;;;5071799;28;20488;-70
2023/12/31 07:25:25;;;;;;;4.15;2.15;;;9.00;99.90;;;;;;5070833;28;20484;-70
2023/12/31 07:27:54;;;;;;;6.35;2.70;;;9.00;99.90;;;;;;5071220;28;20048;-70
2023/12/31 07:30:19;;;;;;;4.55;2.85;;;9.00;99.90;;;;;;5070354;28;20128;-70
2023/12/31 07:32:45;;;;;;;6.65;3.60;;;9.20;99.90;;;;;;5072613;28;20094;-70
2023/12/31 07:35:11;;;;;;;7.20;3.20;;;9.10;99.90;;;;;;5070499;28;20045;-70
2023/12/31 07:37:38;;;;;;;;;;;9.30;99.90;;;;;;5070875;28;20076;-70
2023/12/31 07:40:05;;;;;;;5.10;2.65;;;9.00;99.90;;;;;;5070856;28;19928;-70
2023/12/31 07:42:31;;;;;;;5.72;3.05;;;9.00;99.90;;;;;;5071087;28;20048;-70
2023/12/31 07:44:56;;;;;;;5.90;3.20;;;8.90;99.90;;;;;;5070691;28;20097;-70
2023/12/31 07:47:22;;;;;;;6.25;3.20;;;8.90;99.90;;;;;;5070680;28;20412;-70
2023/12/31 07:49:48;;;;;;;7.07;3.63;;;9.20;99.90;;;;;;5070811;28;20074;-70
2023/12/31 07:52:15;;;;;;;5.38;2.65;;;8.90;99.90;;;;;;5070141;28;20048;-70
2023/12/31 07:54:40;;;;;;;5.85;3.28;;;8.90;99.90;;;;;;5070962;28;20051;-70
2023/12/31 07:57:06;;;;;;;5.40;2.88;;;9.00;99.90;;;;;;5070074;28;20391;-69
2023/12/31 07:59:31;;;;;;;7.65;3.47;;;8.90;99.90;;;;;;5070186;28;20396;-70
2023/12/31 08:01:59;;;;;;;;;;;8.70;99.90;;;;;;5070957;28;20037;-70
2023/12/31 08:04:25;;;;;;;4.97;2.95;;;9.30;99.90;;;;;;5070677;28;20015;-70
2023/12/31 08:06:51;;;;;;;5.35;2.95;;;8.90;99.90;;;;;;5071058;28;20123;-70
2023/12/31 08:09:16;;;;;;;4.57;2.67;;;8.90;99.90;;;;;;5070678;28;20182;-69
2023/12/31 08:11:42;;;;;;;5.03;2.60;;;9.30;99.90;;;;;;5070042;28;20051;-70
2023/12/31 08:14:07;;;;;;;5.07;2.67;;;9.00;99.90;;;;;;5070349;28;20385;-70
2023/12/31 08:16:33;;;;;;;5.03;2.42;;;8.80;99.90;;;;;;5070644;28;20057;-70
2023/12/31 08:18:59;;;;;;;;;;;9.10;99.90;;;;;;5069907;28;20053;-70
2023/12/31 08:21:24;;;;;;;4.18;2.40;;;8.80;99.90;;;;;;5070904;28;20326;-71
2023/12/31 08:23:50;;;;;;;4.80;3.15;;;8.90;99.90;;;;;;5069277;28;20043;-70
2023/12/31 08:26:15;;;;;;;4.65;2.55;;;8.90;99.90;;;;;;5066706;28;20443;-70
2023/12/31 08:28:41;;;;;;;4.35;2.60;;;8.90;99.90;;;;;;5067772;28;20098;-69
2023/12/31 08:31:15;;;;;;;;;;;9.00;99.90;;;;;;5069330;28;20064;-69
2023/12/31 08:33:41;;;;;;;4.25;2.75;;;9.00;99.90;;;;;;5065311;28;19959;-69
2023/12/31 08:36:10;;;;;;;4.43;2.08;;;9.00;99.90;;;;;;5069039;28;20460;-69
2023/12/31 08:38:35;;;;;;;4.70;2.83;;;9.00;99.90;;;;;;5069305;28;20415;-69
2023/12/31 08:41:01;;;;;;;5.18;2.42;;;9.00;99.90;;;;;;5067709;28;20032;-69
2023/12/31 08:43:27;;;;;;;4.82;3.00;;;9.00;99.90;;;;;;5070753;28;20048;-69
2023/12/31 08:45:53;;;;;;;;;;;9.00;99.90;;;;;;5069242;28;20076;-69
2023/12/31 08:48:20;;;;;;;4.75;2.78;;;9.50;99.90;;;;;;5069280;28;20291;-70
2023/12/31 08:50:46;;;;;;;6.18;2.65;;;9.40;99.90;;;;;;5072667;28;20522;-70
2023/12/31 08:53:12;;;;;;;4.15;2.75;;;9.10;99.90;;;;;;5068250;28;20075;-70
2023/12/31 08:55:37;;;;;;;5.45;2.58;;;9.40;99.90;;;;;;5071884;28;20051;-69
2023/12/31 08:58:03;;;;;;;4.72;2.80;;;9.10;99.90;;;;;;5072358;28;20131;-70
2023/12/31 09:00:30;;;;;;;5.57;2.72;;;9.40;99.90;;;;;;5072950;28;20041;-70
2023/12/31 09:02:56;;;;;;;5.25;2.75;;;9.20;99.90;;;;;;5105035;28;20541;-70
2023/12/31 09:05:22;;;;;;;5.05;2.85;;;9.40;99.90;;;;;;5072095;28;20064;-70
2023/12/31 09:07:48;;;;;;;5.45;2.72;;;9.70;99.90;;;;;;5072625;28;20396;-71
2023/12/31 09:10:14;;;;;;;4.72;2.78;;;9.40;99.90;;;;;;5104824;28;20048;-70
2023/12/31 09:12:40;;;;;;;4.50;2.85;;;9.10;99.90;;;;;;5073068;28;20040;-70
2023/12/31 09:15:06;;;;;;;;;;;9.70;99.90;;;;;;5072234;28;20116;-71
2023/12/31 09:17:31;;;;;;;5.87;2.90;;;9.00;99.90;;;;;;5073936;28;19981;-70
2023/12/31 09:19:58;;;;;;;5.70;3.13;;;9.00;99.90;;;;;;5073150;28;20521;-71
2023/12/31 09:22:25;;;;;;;5.25;3.00;;;9.00;99.90;;;;;;5072488;28;20127;-71
2023/12/31 09:24:51;;;;;;;4.70;2.97;;;8.80;99.90;;;;;;5073745;28;20068;-71
2023/12/31 09:27:20;;;;;;;4.07;2.55;;;8.80;99.90;;;;;;5072720;28;20045;-72
2023/12/31 09:29:46;;;;;;;6.43;2.60;;;8.90;99.90;;;;;;5072925;28;20044;-71
2023/12/31 09:32:14;;;;;;;7.15;3.10;;;8.80;99.90;;;;;;5072886;28;20048;-71
2023/12/31 09:34:40;;;;;;;5.60;2.97;;;9.00;99.90;;;;;;5105653;28;20043;-71
2023/12/31 09:37:05;;;;;;;5.32;3.22;;;8.70;99.90;;;;;;5071489;28;20036;-74
2023/12/31 09:39:31;;;;;;;5.10;2.75;;;8.70;99.90;;;;;;5073308;28;20093;-71
2023/12/31 09:42:01;;;;;;;5.82;3.38;;;8.60;99.90;;;;;;5071935;28;20040;-70
2023/12/31 09:44:27;;;;;;;5.65;3.00;;;8.50;99.90;;;;;;5071021;28;20463;-70
2023/12/31 09:47:09;;;;;;;5.00;2.85;;;8.50;99.90;;;;;;5070777;28;20504;-70
2023/12/31 09:49:36;;;;;;;5.32;3.17;;;8.60;99.90;;;;;;5071773;28;20044;-70
2023/12/31 09:52:07;;;;;;;4.82;2.78;;;8.50;99.90;;;;;;5070680;28;20530;-71
2023/12/31 09:54:34;;;;;;;5.47;2.80;;;8.70;99.90;;;;;;5071852;28;20048;-72
2023/12/31 09:57:01;;;;;;;5.25;2.78;;;8.60;99.90;;;;;;5068043;28;20457;-72
2023/12/31 09:59:28;;;;;;;7.38;3.58;;;8.60;99.90;;;;;;5069935;28;20131;-72
2023/12/31 10:01:57;;;;;;;6.38;3.35;;;8.70;99.90;;;;;;5071075;28;20170;-75
2023/12/31 10:04:23;;;;;;;5.80;3.53;;;8.70;99.90;;;;;;5072069;28;20056;-77
2023/12/31 10:06:53;;;;;;;6.90;3.60;;;8.70;99.90;;;;;;5071585;28;20048;-79
2023/12/31 10:09:20;;;;;;;5.88;3.47;;;9.50;99.90;;;;;;5066826;28;20581;-77
2023/12/31 10:14:32;;;;;;;5.18;3.45;;;8.80;99.90;;;;;;5057221;28;20094;-77
2023/12/31 10:16:58;;;;;;;5.38;3.00;;;8.80;99.90;;;;;;5071021;28;20044;-76
2023/12/31 10:19:23;;;;;;;5.30;3.35;;;9.00;99.90;;;;;;5069806;28;20044;-75
2023/12/31 10:21:56;;;;;;;6.72;3.72;;;9.20;99.90;;;;;;5072064;28;20048;-71
2023/12/31 10:24:31;;;;;;;6.15;3.50;;;9.70;99.90;;;;;;5072310;28;20518;-72
2023/12/31 10:27:05;;;;;;;5.63;3.20;;;9.00;99.90;;;;;;5071488;28;20048;-73
2023/12/31 10:29:32;;;;;;;5.50;2.90;;;9.10;99.90;;;;;;5071276;28;20092;-70
2023/12/31 10:32:02;;;;;;;4.85;2.75;;;9.30;99.90;;;;;;5072223;28;20040;-70
2023/12/31 10:34:28;;;;;;;5.47;3.45;;;9.00;99.90;;;;;;5065925;28;20045;-70
2023/12/31 10:37:03;;;;;;;7.07;3.50;;;9.00;99.90;;;;;;5071229;28;20117;-71
2023/12/31 10:39:31;;;;;;;5.45;3.10;;;9.40;99.90;;;;;;5069714;28;20158;-71
2023/12/31 10:42:06;;;;;;;5.65;3.58;;;8.80;99.90;;;;;;5071324;28;20040;-71
2023/12/31 10:44:34;;;;;;;7.63;3.67;;;8.80;99.90;;;;;;5070746;28;20036;-70
2023/12/31 10:47:06;;;;;;;5.85;3.55;;;9.10;99.90;;;;;;5068689;28;20048;-72
2023/12/31 10:49:33;;;;;;;4.75;2.88;;;8.70;99.90;;;;;;5061079;28;20141;-74
2023/12/31 10:52:06;;;;;;;5.20;1.83;;;8.50;99.90;;;;;;5061825;28;20780;-71
2023/12/31 10:54:51;;;;;;;4.28;1.52;;;8.80;99.90;;;;;;5067372;28;20040;-71
2023/12/31 10:57:19;;;;;;;3.63;1.38;;;8.10;99.90;;;;;;5070285;28;20095;-74
2023/12/31 10:59:47;;;;;;;2.65;0.88;;;8.50;99.90;;;;;;5070532;28;20396;-73
2023/12/31 11:02:16;;;;;;;3.92;1.00;;;7.80;99.90;;;;;;5068884;28;20553;-70
2023/12/31 11:04:47;;;;;;;4.78;1.10;;;7.70;99.90;;;;;;5064765;28;20048;-74
2023/12/31 11:07:20;;;;;;;4.82;1.40;;;7.60;99.90;;;;;;5064786;28;20434;-71
2023/12/31 11:09:46;;;;;;;4.60;1.10;;;7.80;99.90;;;;;;5068153;28;20040;-71
2023/12/31 11:12:14;;;;;;;2.83;1.10;;;8.20;99.90;;;;;;5069116;28;20041;-70
2023/12/31 11:14:44;;;;;;;2.25;1.08;;;8.30;99.90;;;;;;5069064;28;20513;-71
2023/12/31 11:17:22;;;;;;;2.95;1.20;;;7.80;99.90;;;;;;5069091;28;20079;-75
2023/12/31 11:20:05;;;;;;;4.03;1.23;;;7.80;99.90;;;;;;5065183;28;20127;-72
2023/12/31 11:22:47;;;;;;;12.25;4.60;;;7.70;99.90;;;;;;5054253;28;20049;-72
2023/12/31 11:25:22;;;;;;;11.68;6.05;;;7.70;99.90;;;;;;5068984;28;20118;-67
2023/12/31 11:27:53;;;;;;;32.45;26.63;;;7.90;99.90;;;;;;5070130;28;20123;-70
2023/12/31 11:30:47;;;;;;;4.00;2.38;;;8.60;99.90;;;;;;5068768;28;20556;-72
2023/12/31 11:33:24;;;;;;;95.32;52.45;;;8.00;99.90;;;;;;5060110;28;20048;-76
2023/12/31 11:35:53;;;;;;;4.82;2.97;;;8.00;99.90;;;;;;5069384;28;20044;-74
2023/12/31 11:38:19;;;;;;;3.40;2.22;;;8.10;99.90;;;;;;5070784;28;20812;-77
2023/12/31 11:40:45;;;;;;;4.22;2.03;;;9.10;99.90;;;;;;5070256;28;20045;-75
2023/12/31 11:43:15;;;;;;;4.80;2.75;;;8.60;99.90;;;;;;5069106;28;20063;-75
2023/12/31 11:45:45;;;;;;;3.13;2.33;;;8.90;99.90;;;;;;5070182;28;20056;-77
2023/12/31 11:48:20;;;;;;;8.50;4.32;;;9.00;99.90;;;;;;5071221;28;20044;-77
2023/12/31 11:50:50;;;;;;;2.42;1.20;;;9.70;99.90;;;;;;5069133;28;20048;-74
2023/12/31 11:53:16;;;;;;;22.80;15.85;;;8.90;99.90;;;;;;5097936;28;20154;-72
2023/12/31 11:55:42;;;;;;;4.25;3.70;;;9.00;99.90;;;;;;5065328;28;20483;-73
2023/12/31 11:58:08;;;;;;;7.90;4.28;;;10.20;99.90;;;;;;5069332;28;20067;-71
2023/12/31 12:00:35;;;;;;;3.30;1.50;;;9.60;99.90;;;;;;5069836;28;20392;-71
2023/12/31 12:03:05;;;;;;;2.30;1.02;;;9.20;99.90;;;;;;5064388;28;20068;-71
2023/12/31 12:05:31;;;;;;;4.53;1.10;;;9.10;99.90;;;;;;5068021;28;20092;-68
2023/12/31 12:07:57;;;;;;;2.60;1.52;;;9.20;99.90;;;;;;5069549;28;20048;-72
2023/12/31 12:10:23;;;;;;;3.70;2.00;;;9.70;99.90;;;;;;5069598;28;20051;-71
2023/12/31 12:12:53;;;;;;;2.47;1.33;;;10.40;99.90;;;;;;5066660;28;20599;-72
2023/12/31 12:15:22;;;;;;;2.95;1.20;;;10.20;99.90;;;;;;5067811;28;20041;-74
2023/12/31 12:17:48;;;;;;;3.08;1.50;;;10.00;99.90;;;;;;5064370;28;20049;-77
2023/12/31 12:20:14;;;;;;;5.20;2.10;;;9.70;99.90;;;;;;5066329;28;20052;-73
2023/12/31 12:22:39;;;;;;;7.28;3.28;;;9.50;99.90;;;;;;5071144;28;20049;-73
2023/12/31 12:25:05;;;;;;;4.25;1.83;;;9.40;99.90;;;;;;5072026;28;20041;-73
2023/12/31 12:27:35;;;;;;;4.13;2.10;;;9.40;99.90;;;;;;5073100;28;20044;-76
2023/12/31 12:30:00;;;;;;;4.28;3.30;;;9.30;99.90;;;;;;5072754;28;20403;-74
2023/12/31 12:32:26;;;;;;;3.22;1.70;;;9.30;99.90;;;;;;5072356;28;20041;-73
2023/12/31 12:34:52;;;;;;;2.70;1.17;;;9.50;99.90;;;;;;5071687;28;20484;-71
2023/12/31 12:37:17;;;;;;;1.92;0.80;;;9.10;99.90;;;;;;5072618;28;20582;-71
2023/12/31 12:39:43;;;;;;;2.40;1.20;;;8.90;99.90;;;;;;5072428;28;20079;-71
2023/12/31 12:42:09;;;;;;;2.88;1.20;;;8.80;99.90;;;;;;5072363;28;20039;-72
2023/12/31 12:44:35;;;;;;;2.63;1.00;;;8.80;99.90;;;;;;5073589;28;20040;-73
2023/12/31 12:47:02;;;;;;;2.80;1.25;;;9.50;99.90;;;;;;5072224;28;20084;-71
2023/12/31 12:49:28;;;;;;;2.10;1.05;;;8.70;99.90;;;;;;5074969;28;20045;-73
2023/12/31 12:51:53;;;;;;;2.60;1.33;;;8.60;99.90;;;;;;5076187;28;20044;-76
2023/12/31 12:54:19;;;;;;;;;;;8.50;99.90;;;;;;5074549;28;20090;-75
2023/12/31 12:56:45;;;;;;;3.05;1.00;;;8.30;99.90;;;;;;5073413;28;19954;-70
2023/12/31 12:59:11;;;;;;;2.30;1.00;;;8.20;99.90;;;;;;5068285;28;20604;-72
2023/12/31 13:01:36;;;;;;;1.45;1.00;;;7.90;99.90;;;;;;5061116;28;20135;-74
2023/12/31 13:04:02;;;;;;;2.72;1.42;;;7.70;99.90;;;;;;5072565;28;20060;-73